sensor_id;sensor_type;location;lat;lon;timestamp;P1;durP1;ratioP1;P2;durP2;ratioP2
55292;SDS011;41157;53.560;10.098;2022-10-15T00:00:12;11.23;;;8.40;;
55292;SDS011;41157;53.560;10.098;2022-10-15T00:02:38;8.77;;;7.90;;
55292;SDS011;41157;53.560;10.098;2022-10-15T00:05:04;12.93;;;8.27;;
55292;SDS011;41157;53.560;10.098;2022-10-15T00:07:30;11.70;;;8.80;;
55292;SDS011;41157;53.560;10.098;2022-10-15T00:09:55;10.70;;;8.20;;
55292;SDS011;41157;53.560;10.098;2022-10-15T00:12:21;9.70;;;8.70;;
55292;SDS011;41157;53.560;10.098;2022-10-15T00:14:47;11.57;;;9.07;;
55292;SDS011;41157;53.560;10.098;2022-10-15T00:17:13;14.67;;;9.03;;
55292;SDS011;41157;53.560;10.098;2022-10-15T00:19:39;11.80;;;9.30;;
55292;SDS011;41157;53.560;10.098;2022-10-15T00:22:05;11.03;;;9.77;;
55292;SDS011;41157;53.560;10.098;2022-10-15T00:24:31;13.67;;;9.73;;
55292;SDS011;41157;53.560;10.098;2022-10-15T00:26:57;11.20;;;9.30;;
55292;SDS011;41157;53.560;10.098;2022-10-15T00:29:23;16.33;;;10.87;;
55292;SDS011;41157;53.560;10.098;2022-10-15T00:31:49;12.67;;;10.17;;
55292;SDS011;41157;53.560;10.098;2022-10-15T00:34:15;14.10;;;11.00;;
55292;SDS011;41157;53.560;10.098;2022-10-15T00:36:41;14.90;;;10.33;;
55292;SDS011;41157;53.560;10.098;2022-10-15T00:39:07;16.77;;;11.57;;
55292;SDS011;41157;53.560;10.098;2022-10-15T00:41:35;14.87;;;10.70;;
55292;SDS011;41157;53.560;10.098;2022-10-15T00:44:42;13.90;;;11.03;;
55292;SDS011;41157;53.560;10.098;2022-10-15T00:46:50;14.97;;;10.97;;
55292;SDS011;41157;53.560;10.098;2022-10-15T00:49:22;16.67;;;10.83;;
55292;SDS011;41157;53.560;10.098;2022-10-15T00:52:00;15.93;;;10.90;;
55292;SDS011;41157;53.560;10.098;2022-10-15T00:54:27;19.50;;;12.20;;
55292;SDS011;41157;53.560;10.098;2022-10-15T00:56:55;13.07;;;11.37;;
55292;SDS011;41157;53.560;10.098;2022-10-15T00:59:22;14.60;;;11.53;;
55292;SDS011;41157;53.560;10.098;2022-10-15T01:01:49;14.43;;;11.77;;
55292;SDS011;41157;53.560;10.098;2022-10-15T01:04:15;11.97;;;10.40;;
55292;SDS011;41157;53.560;10.098;2022-10-15T01:06:42;13.40;;;10.70;;
55292;SDS011;41157;53.560;10.098;2022-10-15T01:09:08;13.27;;;11.43;;
55292;SDS011;41157;53.560;10.098;2022-10-15T01:11:36;15.37;;;11.53;;
55292;SDS011;41157;53.560;10.098;2022-10-15T01:19:30;15.63;;;11.50;;
55292;SDS011;41157;53.560;10.098;2022-10-15T01:29:51;16.43;;;13.03;;
55292;SDS011;41157;53.560;10.098;2022-10-15T01:32:26;16.87;;;14.83;;
55292;SDS011;41157;53.560;10.098;2022-10-15T01:34:55;16.47;;;13.23;;
55292;SDS011;41157;53.560;10.098;2022-10-15T01:37:37;19.90;;;15.30;;
55292;SDS011;41157;53.560;10.098;2022-10-15T01:40:13;20.43;;;16.43;;
55292;SDS011;41157;53.560;10.098;2022-10-15T01:42:45;18.60;;;15.70;;
55292;SDS011;41157;53.560;10.098;2022-10-15T01:45:13;18.13;;;14.50;;
55292;SDS011;41157;53.560;10.098;2022-10-15T01:47:45;18.53;;;16.40;;
55292;SDS011;41157;53.560;10.098;2022-10-15T01:50:13;21.33;;;18.03;;
55292;SDS011;41157;53.560;10.098;2022-10-15T01:52:41;21.03;;;17.33;;
55292;SDS011;41157;53.560;10.098;2022-10-15T01:55:09;22.27;;;18.53;;
55292;SDS011;41157;53.560;10.098;2022-10-15T01:57:36;20.37;;;18.20;;
55292;SDS011;41157;53.560;10.098;2022-10-15T02:00:03;22.57;;;18.37;;
55292;SDS011;41157;53.560;10.098;2022-10-15T02:02:29;23.80;;;17.27;;
55292;SDS011;41157;53.560;10.098;2022-10-15T02:04:55;19.77;;;17.67;;
55292;SDS011;41157;53.560;10.098;2022-10-15T02:10:03;21.53;;;17.37;;
55292;SDS011;41157;53.560;10.098;2022-10-15T02:15:35;19.63;;;17.07;;
55292;SDS011;41157;53.560;10.098;2022-10-15T02:18:08;20.37;;;18.17;;
55292;SDS011;41157;53.560;10.098;2022-10-15T02:20:42;19.60;;;17.43;;
55292;SDS011;41157;53.560;10.098;2022-10-15T02:23:12;20.20;;;17.93;;
55292;SDS011;41157;53.560;10.098;2022-10-15T02:25:40;21.37;;;18.03;;
55292;SDS011;41157;53.560;10.098;2022-10-15T02:28:06;21.10;;;18.07;;
55292;SDS011;41157;53.560;10.098;2022-10-15T02:30:33;22.77;;;18.60;;
55292;SDS011;41157;53.560;10.098;2022-10-15T02:33:01;21.37;;;19.07;;
55292;SDS011;41157;53.560;10.098;2022-10-15T02:35:28;23.37;;;19.27;;
55292;SDS011;41157;53.560;10.098;2022-10-15T02:37:54;21.53;;;18.23;;
55292;SDS011;41157;53.560;10.098;2022-10-15T02:40:23;23.03;;;19.00;;
55292;SDS011;41157;53.560;10.098;2022-10-15T02:42:51;21.60;;;18.50;;
55292;SDS011;41157;53.560;10.098;2022-10-15T02:45:17;22.03;;;19.50;;
55292;SDS011;41157;53.560;10.098;2022-10-15T02:47:43;23.63;;;18.97;;
55292;SDS011;41157;53.560;10.098;2022-10-15T02:50:09;24.10;;;19.87;;
55292;SDS011;41157;53.560;10.098;2022-10-15T02:52:35;22.60;;;18.33;;
55292;SDS011;41157;53.560;10.098;2022-10-15T02:55:01;24.93;;;19.70;;
55292;SDS011;41157;53.560;10.098;2022-10-15T02:57:27;23.07;;;18.70;;
55292;SDS011;41157;53.560;10.098;2022-10-15T02:59:53;24.13;;;19.43;;
55292;SDS011;41157;53.560;10.098;2022-10-15T03:02:19;23.87;;;19.83;;
55292;SDS011;41157;53.560;10.098;2022-10-15T03:04:45;22.47;;;18.37;;
55292;SDS011;41157;53.560;10.098;2022-10-15T03:07:11;23.10;;;18.40;;
55292;SDS011;41157;53.560;10.098;2022-10-15T03:09:38;21.70;;;19.00;;
55292;SDS011;41157;53.560;10.098;2022-10-15T03:12:04;24.30;;;19.73;;
55292;SDS011;41157;53.560;10.098;2022-10-15T03:14:30;22.97;;;18.23;;
55292;SDS011;41157;53.560;10.098;2022-10-15T03:16:56;24.93;;;19.23;;
55292;SDS011;41157;53.560;10.098;2022-10-15T03:19:22;22.40;;;18.50;;
55292;SDS011;41157;53.560;10.098;2022-10-15T03:21:47;24.80;;;18.30;;
55292;SDS011;41157;53.560;10.098;2022-10-15T03:24:13;23.97;;;18.00;;
55292;SDS011;41157;53.560;10.098;2022-10-15T03:26:39;21.77;;;17.30;;
55292;SDS011;41157;53.560;10.098;2022-10-15T03:29:05;22.20;;;17.73;;
55292;SDS011;41157;53.560;10.098;2022-10-15T03:31:31;19.87;;;16.67;;
55292;SDS011;41157;53.560;10.098;2022-10-15T03:33:57;22.33;;;17.47;;
55292;SDS011;41157;53.560;10.098;2022-10-15T03:36:23;21.53;;;17.17;;
55292;SDS011;41157;53.560;10.098;2022-10-15T03:38:49;21.60;;;17.23;;
55292;SDS011;41157;53.560;10.098;2022-10-15T03:41:15;21.23;;;18.10;;
55292;SDS011;41157;53.560;10.098;2022-10-15T03:43:41;22.00;;;17.17;;
55292;SDS011;41157;53.560;10.098;2022-10-15T03:46:07;23.90;;;16.57;;
55292;SDS011;41157;53.560;10.098;2022-10-15T03:48:33;20.43;;;16.13;;
55292;SDS011;41157;53.560;10.098;2022-10-15T03:50:59;24.67;;;16.67;;
55292;SDS011;41157;53.560;10.098;2022-10-15T03:53:25;21.93;;;16.20;;
55292;SDS011;41157;53.560;10.098;2022-10-15T03:55:51;26.93;;;17.93;;
55292;SDS011;41157;53.560;10.098;2022-10-15T03:58:17;23.37;;;17.27;;
55292;SDS011;41157;53.560;10.098;2022-10-15T04:00:43;24.10;;;17.87;;
55292;SDS011;41157;53.560;10.098;2022-10-15T04:03:09;23.20;;;17.97;;
55292;SDS011;41157;53.560;10.098;2022-10-15T04:05:35;26.03;;;17.83;;
55292;SDS011;41157;53.560;10.098;2022-10-15T04:08:02;23.20;;;17.30;;
55292;SDS011;41157;53.560;10.098;2022-10-15T04:10:28;25.87;;;16.90;;
55292;SDS011;41157;53.560;10.098;2022-10-15T04:12:54;22.13;;;16.30;;
55292;SDS011;41157;53.560;10.098;2022-10-15T04:15:20;22.70;;;15.53;;
55292;SDS011;41157;53.560;10.098;2022-10-15T04:17:46;25.33;;;17.97;;
55292;SDS011;41157;53.560;10.098;2022-10-15T04:20:12;30.43;;;17.77;;
55292;SDS011;41157;53.560;10.098;2022-10-15T04:22:38;25.70;;;17.40;;
55292;SDS011;41157;53.560;10.098;2022-10-15T04:25:04;26.37;;;17.67;;
55292;SDS011;41157;53.560;10.098;2022-10-15T04:27:30;22.53;;;16.57;;
55292;SDS011;41157;53.560;10.098;2022-10-15T04:29:56;26.17;;;17.53;;
55292;SDS011;41157;53.560;10.098;2022-10-15T04:32:22;23.43;;;16.47;;
55292;SDS011;41157;53.560;10.098;2022-10-15T04:34:48;26.63;;;16.93;;
55292;SDS011;41157;53.560;10.098;2022-10-15T04:37:14;24.47;;;17.33;;
55292;SDS011;41157;53.560;10.098;2022-10-15T04:39:40;26.23;;;17.67;;
55292;SDS011;41157;53.560;10.098;2022-10-15T04:42:06;28.83;;;18.70;;
55292;SDS011;41157;53.560;10.098;2022-10-15T04:44:32;29.17;;;19.40;;
55292;SDS011;41157;53.560;10.098;2022-10-15T04:46:59;26.97;;;17.97;;
55292;SDS011;41157;53.560;10.098;2022-10-15T04:49:25;25.63;;;16.93;;
55292;SDS011;41157;53.560;10.098;2022-10-15T04:51:51;25.07;;;16.80;;
55292;SDS011;41157;53.560;10.098;2022-10-15T04:54:17;29.27;;;18.27;;
55292;SDS011;41157;53.560;10.098;2022-10-15T04:56:43;30.40;;;18.23;;
55292;SDS011;41157;53.560;10.098;2022-10-15T04:59:09;28.83;;;19.03;;
55292;SDS011;41157;53.560;10.098;2022-10-15T05:01:35;31.67;;;19.27;;
55292;SDS011;41157;53.560;10.098;2022-10-15T05:04:01;35.10;;;20.93;;
55292;SDS011;41157;53.560;10.098;2022-10-15T05:06:27;29.50;;;18.13;;
55292;SDS011;41157;53.560;10.098;2022-10-15T05:08:53;28.90;;;20.13;;
55292;SDS011;41157;53.560;10.098;2022-10-15T05:11:20;30.93;;;20.23;;
55292;SDS011;41157;53.560;10.098;2022-10-15T05:13:47;33.57;;;22.10;;
55292;SDS011;41157;53.560;10.098;2022-10-15T05:16:14;32.50;;;21.20;;
55292;SDS011;41157;53.560;10.098;2022-10-15T05:18:40;30.90;;;20.53;;
55292;SDS011;41157;53.560;10.098;2022-10-15T05:21:07;33.30;;;21.13;;
55292;SDS011;41157;53.560;10.098;2022-10-15T05:23:33;33.77;;;20.47;;
55292;SDS011;41157;53.560;10.098;2022-10-15T05:26:01;31.63;;;21.23;;
55292;SDS011;41157;53.560;10.098;2022-10-15T05:28:27;30.60;;;20.97;;
55292;SDS011;41157;53.560;10.098;2022-10-15T05:30:53;32.87;;;21.43;;
55292;SDS011;41157;53.560;10.098;2022-10-15T05:33:19;33.40;;;19.93;;
55292;SDS011;41157;53.560;10.098;2022-10-15T05:35:45;33.57;;;21.30;;
55292;SDS011;41157;53.560;10.098;2022-10-15T05:38:11;31.60;;;20.07;;
55292;SDS011;41157;53.560;10.098;2022-10-15T05:40:37;33.60;;;20.07;;
55292;SDS011;41157;53.560;10.098;2022-10-15T05:43:03;32.60;;;21.43;;
55292;SDS011;41157;53.560;10.098;2022-10-15T05:45:29;35.30;;;21.83;;
55292;SDS011;41157;53.560;10.098;2022-10-15T05:47:55;33.23;;;21.23;;
55292;SDS011;41157;53.560;10.098;2022-10-15T05:50:21;33.43;;;21.60;;
55292;SDS011;41157;53.560;10.098;2022-10-15T05:52:47;35.40;;;22.17;;
55292;SDS011;41157;53.560;10.098;2022-10-15T05:55:13;34.73;;;20.80;;
55292;SDS011;41157;53.560;10.098;2022-10-15T05:57:39;36.27;;;21.50;;
55292;SDS011;41157;53.560;10.098;2022-10-15T06:00:06;34.33;;;21.40;;
55292;SDS011;41157;53.560;10.098;2022-10-15T06:02:32;38.60;;;21.90;;
55292;SDS011;41157;53.560;10.098;2022-10-15T06:04:58;32.93;;;20.43;;
55292;SDS011;41157;53.560;10.098;2022-10-15T06:07:24;35.77;;;21.83;;
55292;SDS011;41157;53.560;10.098;2022-10-15T06:09:51;34.20;;;21.57;;
55292;SDS011;41157;53.560;10.098;2022-10-15T06:12:17;32.27;;;21.03;;
55292;SDS011;41157;53.560;10.098;2022-10-15T06:14:43;29.40;;;20.90;;
55292;SDS011;41157;53.560;10.098;2022-10-15T06:17:09;35.33;;;21.80;;
55292;SDS011;41157;53.560;10.098;2022-10-15T06:19:35;31.43;;;21.20;;
55292;SDS011;41157;53.560;10.098;2022-10-15T06:22:01;32.03;;;20.47;;
55292;SDS011;41157;53.560;10.098;2022-10-15T06:24:27;29.53;;;21.03;;
55292;SDS011;41157;53.560;10.098;2022-10-15T06:26:53;32.97;;;22.37;;
55292;SDS011;41157;53.560;10.098;2022-10-15T06:29:19;38.40;;;22.97;;
55292;SDS011;41157;53.560;10.098;2022-10-15T06:31:45;34.90;;;22.63;;
55292;SDS011;41157;53.560;10.098;2022-10-15T06:34:11;38.50;;;22.63;;
55292;SDS011;41157;53.560;10.098;2022-10-15T06:36:37;37.37;;;22.73;;
55292;SDS011;41157;53.560;10.098;2022-10-15T06:39:03;34.23;;;23.53;;
55292;SDS011;41157;53.560;10.098;2022-10-15T06:41:29;34.80;;;22.47;;
55292;SDS011;41157;53.560;10.098;2022-10-15T06:43:55;33.37;;;21.90;;
55292;SDS011;41157;53.560;10.098;2022-10-15T06:46:21;35.67;;;22.33;;
55292;SDS011;41157;53.560;10.098;2022-10-15T06:48:46;36.10;;;22.03;;
55292;SDS011;41157;53.560;10.098;2022-10-15T06:51:13;33.70;;;21.77;;
55292;SDS011;41157;53.560;10.098;2022-10-15T06:53:40;35.40;;;21.00;;
55292;SDS011;41157;53.560;10.098;2022-10-15T06:56:07;33.87;;;22.10;;
55292;SDS011;41157;53.560;10.098;2022-10-15T06:58:33;33.67;;;21.77;;
55292;SDS011;41157;53.560;10.098;2022-10-15T07:01:00;31.40;;;22.03;;
55292;SDS011;41157;53.560;10.098;2022-10-15T07:03:26;32.67;;;21.73;;
55292;SDS011;41157;53.560;10.098;2022-10-15T07:05:53;34.40;;;22.97;;
55292;SDS011;41157;53.560;10.098;2022-10-15T07:08:18;31.37;;;20.90;;
55292;SDS011;41157;53.560;10.098;2022-10-15T07:10:45;37.27;;;23.00;;
55292;SDS011;41157;53.560;10.098;2022-10-15T07:13:11;36.47;;;22.90;;
55292;SDS011;41157;53.560;10.098;2022-10-15T07:15:37;30.90;;;22.37;;
55292;SDS011;41157;53.560;10.098;2022-10-15T07:18:03;31.10;;;21.73;;
55292;SDS011;41157;53.560;10.098;2022-10-15T07:20:29;38.17;;;22.03;;
55292;SDS011;41157;53.560;10.098;2022-10-15T07:22:56;32.50;;;21.87;;
55292;SDS011;41157;53.560;10.098;2022-10-15T07:25:22;33.77;;;21.73;;
55292;SDS011;41157;53.560;10.098;2022-10-15T07:27:48;33.67;;;21.90;;
55292;SDS011;41157;53.560;10.098;2022-10-15T07:30:14;30.83;;;22.03;;
55292;SDS011;41157;53.560;10.098;2022-10-15T07:32:41;32.83;;;21.37;;
55292;SDS011;41157;53.560;10.098;2022-10-15T07:35:07;31.90;;;21.27;;
55292;SDS011;41157;53.560;10.098;2022-10-15T07:37:33;33.60;;;21.97;;
55292;SDS011;41157;53.560;10.098;2022-10-15T07:39:59;32.80;;;21.20;;
55292;SDS011;41157;53.560;10.098;2022-10-15T07:42:25;31.80;;;21.20;;
55292;SDS011;41157;53.560;10.098;2022-10-15T07:44:52;34.13;;;23.33;;
55292;SDS011;41157;53.560;10.098;2022-10-15T07:47:17;37.37;;;21.93;;
55292;SDS011;41157;53.560;10.098;2022-10-15T07:49:43;36.27;;;21.90;;
55292;SDS011;41157;53.560;10.098;2022-10-15T07:52:09;32.77;;;21.50;;
55292;SDS011;41157;53.560;10.098;2022-10-15T07:54:36;31.73;;;21.63;;
55292;SDS011;41157;53.560;10.098;2022-10-15T07:57:02;34.37;;;21.93;;
55292;SDS011;41157;53.560;10.098;2022-10-15T07:59:28;30.97;;;21.67;;
55292;SDS011;41157;53.560;10.098;2022-10-15T08:01:54;32.33;;;21.37;;
55292;SDS011;41157;53.560;10.098;2022-10-15T08:04:20;31.57;;;20.63;;
55292;SDS011;41157;53.560;10.098;2022-10-15T08:06:46;34.53;;;21.63;;
55292;SDS011;41157;53.560;10.098;2022-10-15T08:09:13;32.33;;;21.23;;
55292;SDS011;41157;53.560;10.098;2022-10-15T08:11:39;30.67;;;22.20;;
55292;SDS011;41157;53.560;10.098;2022-10-15T08:14:05;31.43;;;21.53;;
55292;SDS011;41157;53.560;10.098;2022-10-15T08:16:31;32.03;;;20.00;;
55292;SDS011;41157;53.560;10.098;2022-10-15T08:18:57;33.87;;;21.60;;
55292;SDS011;41157;53.560;10.098;2022-10-15T08:21:24;29.03;;;19.63;;
55292;SDS011;41157;53.560;10.098;2022-10-15T08:23:50;29.43;;;20.03;;
55292;SDS011;41157;53.560;10.098;2022-10-15T08:26:16;26.47;;;18.60;;
55292;SDS011;41157;53.560;10.098;2022-10-15T08:28:42;23.35;;;18.00;;
55292;SDS011;41157;53.560;10.098;2022-10-15T08:31:08;22.58;;;17.83;;
55292;SDS011;41157;53.560;10.098;2022-10-15T08:33:35;24.02;;;17.65;;
55292;SDS011;41157;53.560;10.098;2022-10-15T08:36:01;24.88;;;16.88;;
55292;SDS011;41157;53.560;10.098;2022-10-15T08:38:29;23.83;;;16.75;;
55292;SDS011;41157;53.560;10.098;2022-10-15T08:40:55;24.38;;;16.95;;
55292;SDS011;41157;53.560;10.098;2022-10-15T08:43:23;25.27;;;17.70;;
55292;SDS011;41157;53.560;10.098;2022-10-15T08:45:50;23.38;;;17.20;;
55292;SDS011;41157;53.560;10.098;2022-10-15T08:48:20;23.27;;;18.00;;
55292;SDS011;41157;53.560;10.098;2022-10-15T08:50:54;24.30;;;16.52;;
55292;SDS011;41157;53.560;10.098;2022-10-15T08:53:22;22.92;;;17.85;;
55292;SDS011;41157;53.560;10.098;2022-10-15T08:55:50;24.23;;;16.05;;
55292;SDS011;41157;53.560;10.098;2022-10-15T09:01:03;19.42;;;14.90;;
55292;SDS011;41157;53.560;10.098;2022-10-15T09:03:47;21.92;;;15.57;;
55292;SDS011;41157;53.560;10.098;2022-10-15T09:13:39;16.02;;;13.75;;
55292;SDS011;41157;53.560;10.098;2022-10-15T09:16:23;19.98;;;16.15;;
55292;SDS011;41157;53.560;10.098;2022-10-15T09:18:51;20.02;;;15.88;;
55292;SDS011;41157;53.560;10.098;2022-10-15T09:21:17;18.25;;;14.90;;
55292;SDS011;41157;53.560;10.098;2022-10-15T09:23:43;18.75;;;15.68;;
55292;SDS011;41157;53.560;10.098;2022-10-15T09:26:16;19.13;;;14.27;;
55292;SDS011;41157;53.560;10.098;2022-10-15T09:28:57;19.83;;;14.32;;
55292;SDS011;41157;53.560;10.098;2022-10-15T09:31:27;18.63;;;15.02;;
55292;SDS011;41157;53.560;10.098;2022-10-15T09:33:56;16.80;;;13.88;;
55292;SDS011;41157;53.560;10.098;2022-10-15T09:36:38;19.85;;;14.30;;
55292;SDS011;41157;53.560;10.098;2022-10-15T09:41:57;14.93;;;12.40;;
55292;SDS011;41157;53.560;10.098;2022-10-15T09:44:27;15.13;;;13.20;;
55292;SDS011;41157;53.560;10.098;2022-10-15T09:46:58;16.55;;;12.88;;
55292;SDS011;41157;53.560;10.098;2022-10-15T09:49:25;15.05;;;12.82;;
55292;SDS011;41157;53.560;10.098;2022-10-15T09:57:21;15.95;;;12.38;;
55292;SDS011;41157;53.560;10.098;2022-10-15T09:59:55;17.00;;;12.35;;
55292;SDS011;41157;53.560;10.098;2022-10-15T10:02:23;17.80;;;13.32;;
55292;SDS011;41157;53.560;10.098;2022-10-15T10:04:49;14.05;;;12.55;;
55292;SDS011;41157;53.560;10.098;2022-10-15T10:07:28;15.18;;;12.43;;
55292;SDS011;41157;53.560;10.098;2022-10-15T10:09:56;15.95;;;11.63;;
55292;SDS011;41157;53.560;10.098;2022-10-15T10:12:56;13.15;;;11.40;;
55292;SDS011;41157;53.560;10.098;2022-10-15T10:17:54;12.55;;;10.75;;
55292;SDS011;41157;53.560;10.098;2022-10-15T10:20:21;13.77;;;11.55;;
55292;SDS011;41157;53.560;10.098;2022-10-15T10:27:53;11.13;;;9.93;;
55292;SDS011;41157;53.560;10.098;2022-10-15T10:30:19;14.02;;;10.63;;
55292;SDS011;41157;53.560;10.098;2022-10-15T10:32:45;11.75;;;10.10;;
55292;SDS011;41157;53.560;10.098;2022-10-15T10:35:21;10.30;;;9.30;;
55292;SDS011;41157;53.560;10.098;2022-10-15T10:37:48;10.35;;;9.25;;
55292;SDS011;41157;53.560;10.098;2022-10-15T10:42:46;14.63;;;9.10;;
55292;SDS011;41157;53.560;10.098;2022-10-15T10:45:20;12.70;;;9.20;;
55292;SDS011;41157;53.560;10.098;2022-10-15T10:47:46;11.50;;;9.50;;
55292;SDS011;41157;53.560;10.098;2022-10-15T10:50:29;9.75;;;8.77;;
55292;SDS011;41157;53.560;10.098;2022-10-15T10:52:56;11.00;;;8.65;;
55292;SDS011;41157;53.560;10.098;2022-10-15T10:55:24;9.55;;;8.55;;
55292;SDS011;41157;53.560;10.098;2022-10-15T10:57:56;11.73;;;8.90;;
55292;SDS011;41157;53.560;10.098;2022-10-15T11:00:40;14.30;;;7.45;;
55292;SDS011;41157;53.560;10.098;2022-10-15T11:03:13;10.45;;;7.93;;
55292;SDS011;41157;53.560;10.098;2022-10-15T11:05:42;10.82;;;7.47;;
55292;SDS011;41157;53.560;10.098;2022-10-15T11:08:25;10.93;;;7.80;;
55292;SDS011;41157;53.560;10.098;2022-10-15T11:10:55;10.57;;;7.20;;
55292;SDS011;41157;53.560;10.098;2022-10-15T11:13:33;8.80;;;6.97;;
55292;SDS011;41157;53.560;10.098;2022-10-15T11:16:06;11.82;;;6.50;;
55292;SDS011;41157;53.560;10.098;2022-10-15T11:18:43;9.02;;;6.82;;
55292;SDS011;41157;53.560;10.098;2022-10-15T11:31:40;9.00;;;5.15;;
55292;SDS011;41157;53.560;10.098;2022-10-15T11:34:15;6.00;;;4.78;;
55292;SDS011;41157;53.560;10.098;2022-10-15T11:36:49;7.95;;;4.55;;
55292;SDS011;41157;53.560;10.098;2022-10-15T11:44:28;6.90;;;3.40;;
55292;SDS011;41157;53.560;10.098;2022-10-15T11:47:19;6.32;;;3.08;;
55292;SDS011;41157;53.560;10.098;2022-10-15T11:52:29;5.18;;;2.78;;
55292;SDS011;41157;53.560;10.098;2022-10-15T11:55:07;3.35;;;2.47;;
55292;SDS011;41157;53.560;10.098;2022-10-15T11:57:36;3.92;;;2.65;;
55292;SDS011;41157;53.560;10.098;2022-10-15T12:00:17;5.18;;;2.63;;
55292;SDS011;41157;53.560;10.098;2022-10-15T12:02:44;4.07;;;2.28;;
55292;SDS011;41157;53.560;10.098;2022-10-15T12:05:17;3.40;;;2.10;;
55292;SDS011;41157;53.560;10.098;2022-10-15T12:07:47;3.65;;;2.40;;
55292;SDS011;41157;53.560;10.098;2022-10-15T12:15:34;6.40;;;2.75;;
55292;SDS011;41157;53.560;10.098;2022-10-15T12:18:22;3.50;;;2.33;;
55292;SDS011;41157;53.560;10.098;2022-10-15T12:20:51;3.95;;;2.38;;
55292;SDS011;41157;53.560;10.098;2022-10-15T12:23:41;4.68;;;2.70;;
55292;SDS011;41157;53.560;10.098;2022-10-15T12:28:49;4.30;;;2.65;;
55292;SDS011;41157;53.560;10.098;2022-10-15T12:31:16;3.78;;;2.63;;
55292;SDS011;41157;53.560;10.098;2022-10-15T12:33:49;3.92;;;2.55;;
55292;SDS011;41157;53.560;10.098;2022-10-15T12:36:28;3.70;;;2.60;;
55292;SDS011;41157;53.560;10.098;2022-10-15T12:38:56;5.13;;;2.30;;
55292;SDS011;41157;53.560;10.098;2022-10-15T12:41:33;4.05;;;2.78;;
55292;SDS011;41157;53.560;10.098;2022-10-15T12:44:04;4.85;;;3.38;;
55292;SDS011;41157;53.560;10.098;2022-10-15T12:46:35;4.82;;;3.00;;
55292;SDS011;41157;53.560;10.098;2022-10-15T12:49:08;4.28;;;3.00;;
55292;SDS011;41157;53.560;10.098;2022-10-15T12:51:48;4.88;;;3.00;;
55292;SDS011;41157;53.560;10.098;2022-10-15T12:54:33;5.97;;;2.47;;
55292;SDS011;41157;53.560;10.098;2022-10-15T12:57:00;4.65;;;2.60;;
55292;SDS011;41157;53.560;10.098;2022-10-15T12:59:29;4.32;;;2.33;;
55292;SDS011;41157;53.560;10.098;2022-10-15T13:01:56;8.48;;;2.40;;
55292;SDS011;41157;53.560;10.098;2022-10-15T13:04:22;4.90;;;2.03;;
55292;SDS011;41157;53.560;10.098;2022-10-15T13:06:48;4.43;;;2.65;;
55292;SDS011;41157;53.560;10.098;2022-10-15T13:11:48;2.97;;;2.72;;
55292;SDS011;41157;53.560;10.098;2022-10-15T13:14:24;5.82;;;2.75;;
55292;SDS011;41157;53.560;10.098;2022-10-15T13:16:51;4.45;;;2.80;;
55292;SDS011;41157;53.560;10.098;2022-10-15T13:21:51;4.45;;;2.80;;
55292;SDS011;41157;53.560;10.098;2022-10-15T13:24:19;8.90;;;3.58;;
55292;SDS011;41157;53.560;10.098;2022-10-15T13:26:46;6.68;;;3.38;;
55292;SDS011;41157;53.560;10.098;2022-10-15T13:29:14;5.20;;;3.80;;
55292;SDS011;41157;53.560;10.098;2022-10-15T13:31:40;3.83;;;3.15;;
55292;SDS011;41157;53.560;10.098;2022-10-15T13:34:18;4.20;;;3.10;;
55292;SDS011;41157;53.560;10.098;2022-10-15T13:36:46;6.93;;;3.13;;
55292;SDS011;41157;53.560;10.098;2022-10-15T13:41:47;10.20;;;3.67;;
55292;SDS011;41157;53.560;10.098;2022-10-15T13:44:20;4.10;;;3.28;;
55292;SDS011;41157;53.560;10.098;2022-10-15T13:46:46;11.02;;;4.35;;
55292;SDS011;41157;53.560;10.098;2022-10-15T13:49:12;7.15;;;4.10;;
55292;SDS011;41157;53.560;10.098;2022-10-15T13:51:45;8.38;;;4.22;;
55292;SDS011;41157;53.560;10.098;2022-10-15T13:54:14;6.50;;;5.25;;
55292;SDS011;41157;53.560;10.098;2022-10-15T13:56:41;5.88;;;4.03;;
55292;SDS011;41157;53.560;10.098;2022-10-15T13:59:13;6.53;;;5.10;;
55292;SDS011;41157;53.560;10.098;2022-10-15T14:01:44;7.57;;;4.85;;
55292;SDS011;41157;53.560;10.098;2022-10-15T14:04:14;8.63;;;5.05;;
55292;SDS011;41157;53.560;10.098;2022-10-15T14:06:41;8.40;;;5.22;;
55292;SDS011;41157;53.560;10.098;2022-10-15T14:09:21;5.57;;;4.82;;
55292;SDS011;41157;53.560;10.098;2022-10-15T14:11:49;6.47;;;5.40;;
55292;SDS011;41157;53.560;10.098;2022-10-15T14:16:53;8.77;;;6.20;;
55292;SDS011;41157;53.560;10.098;2022-10-15T14:19:20;8.55;;;6.53;;
55292;SDS011;41157;53.560;10.098;2022-10-15T14:21:51;7.13;;;6.35;;
55292;SDS011;41157;53.560;10.098;2022-10-15T14:24:21;11.63;;;6.40;;
55292;SDS011;41157;53.560;10.098;2022-10-15T14:26:48;9.95;;;7.18;;
55292;SDS011;41157;53.560;10.098;2022-10-15T14:31:45;9.93;;;7.10;;
55292;SDS011;41157;53.560;10.098;2022-10-15T14:37:26;11.10;;;7.63;;
55292;SDS011;41157;53.560;10.098;2022-10-15T14:40:01;11.27;;;7.18;;
55292;SDS011;41157;53.560;10.098;2022-10-15T14:42:29;12.25;;;8.88;;
55292;SDS011;41157;53.560;10.098;2022-10-15T14:44:56;9.65;;;8.65;;
55292;SDS011;41157;53.560;10.098;2022-10-15T14:47:34;11.07;;;9.25;;
55292;SDS011;41157;53.560;10.098;2022-10-15T14:50:00;11.45;;;9.45;;
55292;SDS011;41157;53.560;10.098;2022-10-15T14:52:28;12.77;;;9.15;;
55292;SDS011;41157;53.560;10.098;2022-10-15T14:57:23;12.70;;;10.70;;
55292;SDS011;41157;53.560;10.098;2022-10-15T14:59:51;14.57;;;11.15;;
55292;SDS011;41157;53.560;10.098;2022-10-15T15:02:17;12.60;;;10.82;;
55292;SDS011;41157;53.560;10.098;2022-10-15T15:04:44;13.45;;;10.95;;
55292;SDS011;41157;53.560;10.098;2022-10-15T15:07:13;11.88;;;10.40;;
55292;SDS011;41157;53.560;10.098;2022-10-15T15:09:39;17.98;;;11.73;;
55292;SDS011;41157;53.560;10.098;2022-10-15T15:12:07;14.15;;;11.30;;
55292;SDS011;41157;53.560;10.098;2022-10-15T15:14:35;16.00;;;10.68;;
55292;SDS011;41157;53.560;10.098;2022-10-15T15:17:01;13.63;;;10.60;;
55292;SDS011;41157;53.560;10.098;2022-10-15T15:19:27;12.55;;;10.40;;
55292;SDS011;41157;53.560;10.098;2022-10-15T15:21:53;13.38;;;9.32;;
55292;SDS011;41157;53.560;10.098;2022-10-15T15:24:19;11.23;;;9.80;;
55292;SDS011;41157;53.560;10.098;2022-10-15T15:26:44;10.23;;;9.23;;
55292;SDS011;41157;53.560;10.098;2022-10-15T15:29:11;12.68;;;9.70;;
55292;SDS011;41157;53.560;10.098;2022-10-15T15:31:40;12.80;;;10.02;;
55292;SDS011;41157;53.560;10.098;2022-10-15T15:34:06;14.90;;;11.23;;
55292;SDS011;41157;53.560;10.098;2022-10-15T15:36:32;12.52;;;9.65;;
55292;SDS011;41157;53.560;10.098;2022-10-15T15:38:58;11.85;;;10.15;;
55292;SDS011;41157;53.560;10.098;2022-10-15T15:41:24;13.73;;;10.55;;
55292;SDS011;41157;53.560;10.098;2022-10-15T15:43:50;11.85;;;10.65;;
55292;SDS011;41157;53.560;10.098;2022-10-15T15:46:19;13.25;;;10.30;;
55292;SDS011;41157;53.560;10.098;2022-10-15T15:48:45;12.05;;;10.85;;
55292;SDS011;41157;53.560;10.098;2022-10-15T15:51:27;12.90;;;11.43;;
55292;SDS011;41157;53.560;10.098;2022-10-15T15:53:54;16.10;;;11.67;;